sensor_id;sensor_type;location;lat;lon;timestamp;P1;durP1;ratioP1;P2;durP2;ratioP2
76053;SDS011;64752;48.870;9.082;2022-10-31T00:04:03;14.82;;;6.38;;
76053;SDS011;64752;48.870;9.082;2022-10-31T00:06:29;14.52;;;6.50;;
76053;SDS011;64752;48.870;9.082;2022-10-31T00:08:59;15.25;;;6.70;;
76053;SDS011;64752;48.870;9.082;2022-10-31T00:11:26;13.95;;;6.65;;
76053;SDS011;64752;48.870;9.082;2022-10-31T00:13:52;18.65;;;6.93;;
76053;SDS011;64752;48.870;9.082;2022-10-31T00:16:21;15.57;;;7.05;;
76053;SDS011;64752;48.870;9.082;2022-10-31T00:18:52;12.95;;;6.68;;
76053;SDS011;64752;48.870;9.082;2022-10-31T00:21:20;14.00;;;6.57;;
76053;SDS011;64752;48.870;9.082;2022-10-31T00:23:45;14.07;;;7.07;;
76053;SDS011;64752;48.870;9.082;2022-10-31T00:26:11;15.07;;;7.32;;
76053;SDS011;64752;48.870;9.082;2022-10-31T00:28:36;14.48;;;7.07;;
76053;SDS011;64752;48.870;9.082;2022-10-31T00:31:02;14.07;;;7.15;;
76053;SDS011;64752;48.870;9.082;2022-10-31T00:33:29;16.58;;;7.15;;
76053;SDS011;64752;48.870;9.082;2022-10-31T00:35:55;12.57;;;6.90;;
76053;SDS011;64752;48.870;9.082;2022-10-31T00:38:21;14.57;;;7.22;;
76053;SDS011;64752;48.870;9.082;2022-10-31T00:40:47;10.60;;;6.53;;
76053;SDS011;64752;48.870;9.082;2022-10-31T00:43:12;15.52;;;7.00;;
76053;SDS011;64752;48.870;9.082;2022-10-31T00:45:37;14.15;;;7.03;;
76053;SDS011;64752;48.870;9.082;2022-10-31T00:48:03;14.27;;;7.18;;
76053;SDS011;64752;48.870;9.082;2022-10-31T00:50:29;14.27;;;6.75;;
76053;SDS011;64752;48.870;9.082;2022-10-31T00:52:55;13.73;;;6.38;;
76053;SDS011;64752;48.870;9.082;2022-10-31T00:55:21;15.18;;;6.68;;
76053;SDS011;64752;48.870;9.082;2022-10-31T00:57:47;14.93;;;6.65;;
76053;SDS011;64752;48.870;9.082;2022-10-31T01:00:12;17.00;;;6.68;;
76053;SDS011;64752;48.870;9.082;2022-10-31T01:02:38;10.02;;;6.22;;
76053;SDS011;64752;48.870;9.082;2022-10-31T01:05:03;11.75;;;6.43;;
76053;SDS011;64752;48.870;9.082;2022-10-31T01:07:29;17.73;;;7.05;;
76053;SDS011;64752;48.870;9.082;2022-10-31T01:09:54;11.73;;;6.53;;
76053;SDS011;64752;48.870;9.082;2022-10-31T01:12:20;15.60;;;6.88;;
76053;SDS011;64752;48.870;9.082;2022-10-31T01:14:45;12.45;;;6.97;;
76053;SDS011;64752;48.870;9.082;2022-10-31T01:17:11;11.13;;;6.18;;
76053;SDS011;64752;48.870;9.082;2022-10-31T01:19:37;19.30;;;7.15;;
76053;SDS011;64752;48.870;9.082;2022-10-31T01:22:02;15.20;;;6.50;;
76053;SDS011;64752;48.870;9.082;2022-10-31T01:24:28;14.10;;;6.60;;
76053;SDS011;64752;48.870;9.082;2022-10-31T01:26:53;13.80;;;7.07;;
76053;SDS011;64752;48.870;9.082;2022-10-31T01:29:18;15.20;;;6.25;;
76053;SDS011;64752;48.870;9.082;2022-10-31T01:31:43;11.07;;;6.38;;
76053;SDS011;64752;48.870;9.082;2022-10-31T01:34:12;10.45;;;6.10;;
76053;SDS011;64752;48.870;9.082;2022-10-31T01:36:39;11.73;;;6.18;;
76053;SDS011;64752;48.870;9.082;2022-10-31T01:39:06;14.63;;;6.72;;
76053;SDS011;64752;48.870;9.082;2022-10-31T01:41:35;11.35;;;5.85;;
76053;SDS011;64752;48.870;9.082;2022-10-31T01:49:24;13.00;;;5.93;;
76053;SDS011;64752;48.870;9.082;2022-10-31T01:51:55;11.00;;;5.70;;
76053;SDS011;64752;48.870;9.082;2022-10-31T01:54:26;14.35;;;6.10;;
76053;SDS011;64752;48.870;9.082;2022-10-31T01:56:59;12.50;;;5.88;;
76053;SDS011;64752;48.870;9.082;2022-10-31T01:59:27;10.18;;;5.80;;
76053;SDS011;64752;48.870;9.082;2022-10-31T02:01:55;11.85;;;6.13;;
76053;SDS011;64752;48.870;9.082;2022-10-31T02:04:21;11.85;;;5.65;;
76053;SDS011;64752;48.870;9.082;2022-10-31T02:06:51;12.32;;;5.78;;
76053;SDS011;64752;48.870;9.082;2022-10-31T02:09:21;14.05;;;6.15;;
76053;SDS011;64752;48.870;9.082;2022-10-31T02:11:51;11.18;;;5.72;;
76053;SDS011;64752;48.870;9.082;2022-10-31T02:14:20;12.57;;;6.40;;
76053;SDS011;64752;48.870;9.082;2022-10-31T02:16:47;13.80;;;6.22;;
76053;SDS011;64752;48.870;9.082;2022-10-31T02:19:13;12.73;;;6.45;;
76053;SDS011;64752;48.870;9.082;2022-10-31T02:21:57;16.92;;;6.07;;
76053;SDS011;64752;48.870;9.082;2022-10-31T02:32:43;14.55;;;7.10;;
76053;SDS011;64752;48.870;9.082;2022-10-31T02:46:44;11.57;;;6.15;;
76053;SDS011;64752;48.870;9.082;2022-10-31T02:49:28;14.57;;;6.47;;
76053;SDS011;64752;48.870;9.082;2022-10-31T02:51:58;14.85;;;6.90;;
76053;SDS011;64752;48.870;9.082;2022-10-31T02:54:24;18.52;;;6.90;;
76053;SDS011;64752;48.870;9.082;2022-10-31T02:56:59;13.15;;;6.97;;
76053;SDS011;64752;48.870;9.082;2022-10-31T02:59:29;14.30;;;6.82;;
76053;SDS011;64752;48.870;9.082;2022-10-31T03:15:19;15.98;;;7.07;;
76053;SDS011;64752;48.870;9.082;2022-10-31T03:18:25;12.18;;;6.90;;
76053;SDS011;64752;48.870;9.082;2022-10-31T03:20:54;14.35;;;7.03;;
76053;SDS011;64752;48.870;9.082;2022-10-31T03:23:24;13.35;;;6.65;;
76053;SDS011;64752;48.870;9.082;2022-10-31T03:25:51;12.02;;;6.43;;
76053;SDS011;64752;48.870;9.082;2022-10-31T03:28:21;12.65;;;6.97;;
76053;SDS011;64752;48.870;9.082;2022-10-31T03:30:50;10.02;;;6.68;;
76053;SDS011;64752;48.870;9.082;2022-10-31T03:33:18;12.05;;;6.80;;
76053;SDS011;64752;48.870;9.082;2022-10-31T03:35:50;15.90;;;6.82;;
76053;SDS011;64752;48.870;9.082;2022-10-31T03:38:17;11.35;;;6.15;;
76053;SDS011;64752;48.870;9.082;2022-10-31T03:40:44;15.60;;;6.20;;
76053;SDS011;64752;48.870;9.082;2022-10-31T03:43:13;10.82;;;6.30;;
76053;SDS011;64752;48.870;9.082;2022-10-31T03:45:45;14.65;;;7.38;;
76053;SDS011;64752;48.870;9.082;2022-10-31T03:48:15;10.70;;;6.53;;
76053;SDS011;64752;48.870;9.082;2022-10-31T03:50:56;13.60;;;6.93;;
76053;SDS011;64752;48.870;9.082;2022-10-31T03:53:32;13.43;;;6.95;;
76053;SDS011;64752;48.870;9.082;2022-10-31T03:58:36;11.52;;;6.65;;
76053;SDS011;64752;48.870;9.082;2022-10-31T04:01:08;13.82;;;6.63;;
76053;SDS011;64752;48.870;9.082;2022-10-31T04:03:38;11.93;;;6.03;;
76053;SDS011;64752;48.870;9.082;2022-10-31T04:06:05;13.27;;;6.82;;
76053;SDS011;64752;48.870;9.082;2022-10-31T04:08:35;13.68;;;6.07;;
76053;SDS011;64752;48.870;9.082;2022-10-31T04:11:05;12.48;;;6.78;;
76053;SDS011;64752;48.870;9.082;2022-10-31T04:13:34;15.90;;;6.20;;
76053;SDS011;64752;48.870;9.082;2022-10-31T04:16:02;11.02;;;6.38;;
76053;SDS011;64752;48.870;9.082;2022-10-31T04:18:28;15.23;;;7.20;;
76053;SDS011;64752;48.870;9.082;2022-10-31T04:21:00;13.02;;;6.70;;
76053;SDS011;64752;48.870;9.082;2022-10-31T04:23:27;15.52;;;6.95;;
76053;SDS011;64752;48.870;9.082;2022-10-31T04:25:53;11.30;;;6.85;;
76053;SDS011;64752;48.870;9.082;2022-10-31T04:28:19;14.55;;;6.80;;
76053;SDS011;64752;48.870;9.082;2022-10-31T04:30:44;12.15;;;6.88;;
76053;SDS011;64752;48.870;9.082;2022-10-31T04:33:09;11.23;;;6.10;;
76053;SDS011;64752;48.870;9.082;2022-10-31T04:35:35;15.85;;;7.55;;
76053;SDS011;64752;48.870;9.082;2022-10-31T04:38:00;13.40;;;7.50;;
76053;SDS011;64752;48.870;9.082;2022-10-31T04:40:25;21.13;;;7.00;;
76053;SDS011;64752;48.870;9.082;2022-10-31T04:42:51;14.20;;;7.00;;
76053;SDS011;64752;48.870;9.082;2022-10-31T04:45:16;13.35;;;7.60;;
76053;SDS011;64752;48.870;9.082;2022-10-31T04:47:41;14.70;;;7.45;;
76053;SDS011;64752;48.870;9.082;2022-10-31T04:50:07;13.05;;;6.95;;
76053;SDS011;64752;48.870;9.082;2022-10-31T04:52:37;13.27;;;9.00;;
76053;SDS011;64752;48.870;9.082;2022-10-31T04:55:04;11.75;;;7.95;;
76053;SDS011;64752;48.870;9.082;2022-10-31T04:57:29;12.43;;;8.05;;
76053;SDS011;64752;48.870;9.082;2022-10-31T04:59:54;14.30;;;7.75;;
76053;SDS011;64752;48.870;9.082;2022-10-31T05:02:20;14.98;;;7.45;;
76053;SDS011;64752;48.870;9.082;2022-10-31T05:04:45;13.48;;;7.78;;
76053;SDS011;64752;48.870;9.082;2022-10-31T05:07:10;15.32;;;7.72;;
76053;SDS011;64752;48.870;9.082;2022-10-31T05:09:36;14.00;;;7.50;;
76053;SDS011;64752;48.870;9.082;2022-10-31T05:12:01;13.63;;;7.03;;
76053;SDS011;64752;48.870;9.082;2022-10-31T05:14:26;13.68;;;7.13;;
76053;SDS011;64752;48.870;9.082;2022-10-31T05:16:52;11.50;;;7.07;;
76053;SDS011;64752;48.870;9.082;2022-10-31T05:19:17;20.40;;;9.20;;
76053;SDS011;64752;48.870;9.082;2022-10-31T05:21:42;16.60;;;8.32;;
76053;SDS011;64752;48.870;9.082;2022-10-31T05:24:08;17.90;;;7.93;;
76053;SDS011;64752;48.870;9.082;2022-10-31T05:26:33;14.25;;;7.82;;
76053;SDS011;64752;48.870;9.082;2022-10-31T05:28:59;13.68;;;7.80;;
76053;SDS011;64752;48.870;9.082;2022-10-31T05:31:24;18.98;;;7.95;;
76053;SDS011;64752;48.870;9.082;2022-10-31T05:33:49;14.07;;;7.55;;
76053;SDS011;64752;48.870;9.082;2022-10-31T05:36:16;15.98;;;8.45;;
76053;SDS011;64752;48.870;9.082;2022-10-31T05:38:41;12.18;;;7.32;;
76053;SDS011;64752;48.870;9.082;2022-10-31T05:41:06;13.60;;;7.32;;
76053;SDS011;64752;48.870;9.082;2022-10-31T05:43:32;13.93;;;7.68;;
76053;SDS011;64752;48.870;9.082;2022-10-31T05:45:57;17.63;;;7.70;;
76053;SDS011;64752;48.870;9.082;2022-10-31T05:48:22;14.45;;;7.53;;
76053;SDS011;64752;48.870;9.082;2022-10-31T05:50:48;17.00;;;7.57;;
76053;SDS011;64752;48.870;9.082;2022-10-31T05:53:14;13.40;;;7.55;;
76053;SDS011;64752;48.870;9.082;2022-10-31T05:55:40;13.27;;;8.02;;
76053;SDS011;64752;48.870;9.082;2022-10-31T05:58:07;14.88;;;8.43;;
76053;SDS011;64752;48.870;9.082;2022-10-31T06:00:33;23.88;;;8.55;;
76053;SDS011;64752;48.870;9.082;2022-10-31T06:03:02;15.00;;;7.90;;
76053;SDS011;64752;48.870;9.082;2022-10-31T06:05:29;16.65;;;8.70;;
76053;SDS011;64752;48.870;9.082;2022-10-31T06:07:55;13.48;;;7.22;;
76053;SDS011;64752;48.870;9.082;2022-10-31T06:10:20;12.80;;;7.13;;
76053;SDS011;64752;48.870;9.082;2022-10-31T06:12:46;13.80;;;7.45;;
76053;SDS011;64752;48.870;9.082;2022-10-31T06:15:12;15.95;;;7.07;;
76053;SDS011;64752;48.870;9.082;2022-10-31T06:17:38;17.90;;;6.97;;
76053;SDS011;64752;48.870;9.082;2022-10-31T06:20:04;18.58;;;7.65;;
76053;SDS011;64752;48.870;9.082;2022-10-31T06:22:30;16.30;;;7.63;;
76053;SDS011;64752;48.870;9.082;2022-10-31T06:24:55;13.85;;;7.15;;
76053;SDS011;64752;48.870;9.082;2022-10-31T06:27:21;17.00;;;8.23;;
76053;SDS011;64752;48.870;9.082;2022-10-31T06:29:46;10.73;;;7.10;;
76053;SDS011;64752;48.870;9.082;2022-10-31T06:32:12;12.68;;;6.75;;
76053;SDS011;64752;48.870;9.082;2022-10-31T06:34:38;14.80;;;6.93;;
76053;SDS011;64752;48.870;9.082;2022-10-31T06:37:11;13.33;;;6.67;;
76053;SDS011;64752;48.870;9.082;2022-10-31T06:39:37;11.68;;;6.55;;
76053;SDS011;64752;48.870;9.082;2022-10-31T06:42:03;12.02;;;6.32;;
76053;SDS011;64752;48.870;9.082;2022-10-31T06:44:29;11.65;;;7.03;;
76053;SDS011;64752;48.870;9.082;2022-10-31T06:46:58;14.48;;;7.45;;
76053;SDS011;64752;48.870;9.082;2022-10-31T06:49:23;12.43;;;6.15;;
76053;SDS011;64752;48.870;9.082;2022-10-31T06:51:49;14.70;;;5.25;;
76053;SDS011;64752;48.870;9.082;2022-10-31T06:54:15;11.57;;;5.78;;
76053;SDS011;64752;48.870;9.082;2022-10-31T06:56:40;19.25;;;6.75;;
76053;SDS011;64752;48.870;9.082;2022-10-31T06:59:06;8.75;;;5.28;;
76053;SDS011;64752;48.870;9.082;2022-10-31T07:01:31;10.75;;;4.90;;
76053;SDS011;64752;48.870;9.082;2022-10-31T07:03:57;8.98;;;4.90;;
76053;SDS011;64752;48.870;9.082;2022-10-31T07:06:22;8.50;;;4.35;;
76053;SDS011;64752;48.870;9.082;2022-10-31T07:08:47;8.73;;;4.30;;
76053;SDS011;64752;48.870;9.082;2022-10-31T07:11:13;12.02;;;5.10;;
76053;SDS011;64752;48.870;9.082;2022-10-31T07:13:38;8.00;;;4.75;;
76053;SDS011;64752;48.870;9.082;2022-10-31T07:16:04;11.30;;;4.93;;
76053;SDS011;64752;48.870;9.082;2022-10-31T07:18:31;12.90;;;4.85;;
76053;SDS011;64752;48.870;9.082;2022-10-31T07:20:57;10.55;;;5.10;;
76053;SDS011;64752;48.870;9.082;2022-10-31T07:23:23;17.73;;;5.45;;
76053;SDS011;64752;48.870;9.082;2022-10-31T07:25:48;13.05;;;5.53;;
76053;SDS011;64752;48.870;9.082;2022-10-31T07:28:13;11.23;;;5.30;;
76053;SDS011;64752;48.870;9.082;2022-10-31T07:30:39;12.52;;;5.07;;
76053;SDS011;64752;48.870;9.082;2022-10-31T07:33:05;13.50;;;5.57;;
76053;SDS011;64752;48.870;9.082;2022-10-31T07:35:31;10.30;;;5.18;;
76053;SDS011;64752;48.870;9.082;2022-10-31T07:37:56;14.45;;;5.18;;
76053;SDS011;64752;48.870;9.082;2022-10-31T07:40:22;13.43;;;5.00;;
76053;SDS011;64752;48.870;9.082;2022-10-31T07:42:49;12.63;;;5.47;;
76053;SDS011;64752;48.870;9.082;2022-10-31T07:45:17;12.75;;;5.70;;
76053;SDS011;64752;48.870;9.082;2022-10-31T07:47:44;12.73;;;5.68;;
76053;SDS011;64752;48.870;9.082;2022-10-31T07:50:15;14.18;;;5.53;;
76053;SDS011;64752;48.870;9.082;2022-10-31T07:52:42;11.80;;;5.32;;
76053;SDS011;64752;48.870;9.082;2022-10-31T07:55:08;12.07;;;4.95;;
76053;SDS011;64752;48.870;9.082;2022-10-31T07:57:33;13.20;;;5.20;;
76053;SDS011;64752;48.870;9.082;2022-10-31T07:59:59;12.30;;;5.23;;
76053;SDS011;64752;48.870;9.082;2022-10-31T08:02:24;13.37;;;6.37;;
76053;SDS011;64752;48.870;9.082;2022-10-31T08:04:50;14.68;;;4.28;;
76053;SDS011;64752;48.870;9.082;2022-10-31T08:07:16;12.07;;;3.70;;
76053;SDS011;64752;48.870;9.082;2022-10-31T08:09:41;9.63;;;3.87;;
76053;SDS011;64752;48.870;9.082;2022-10-31T08:12:07;9.43;;;4.23;;
76053;SDS011;64752;48.870;9.082;2022-10-31T08:14:32;8.80;;;3.70;;
76053;SDS011;64752;48.870;9.082;2022-10-31T08:16:57;7.97;;;3.90;;
76053;SDS011;64752;48.870;9.082;2022-10-31T08:19:23;7.60;;;3.87;;
76053;SDS011;64752;48.870;9.082;2022-10-31T08:21:51;16.10;;;5.10;;
76053;SDS011;64752;48.870;9.082;2022-10-31T08:24:19;8.63;;;3.90;;
76053;SDS011;64752;48.870;9.082;2022-10-31T08:26:48;10.95;;;4.78;;
76053;SDS011;64752;48.870;9.082;2022-10-31T08:29:13;9.03;;;4.30;;
76053;SDS011;64752;48.870;9.082;2022-10-31T08:31:39;12.00;;;4.43;;
76053;SDS011;64752;48.870;9.082;2022-10-31T08:34:05;14.90;;;4.70;;
76053;SDS011;64752;48.870;9.082;2022-10-31T08:36:30;11.10;;;4.40;;
76053;SDS011;64752;48.870;9.082;2022-10-31T08:38:55;10.50;;;4.93;;
76053;SDS011;64752;48.870;9.082;2022-10-31T08:41:21;18.57;;;4.90;;
76053;SDS011;64752;48.870;9.082;2022-10-31T08:43:46;14.13;;;5.20;;
76053;SDS011;64752;48.870;9.082;2022-10-31T08:46:12;18.23;;;5.37;;
76053;SDS011;64752;48.870;9.082;2022-10-31T08:48:37;20.03;;;4.87;;
76053;SDS011;64752;48.870;9.082;2022-10-31T08:51:02;14.60;;;5.47;;
76053;SDS011;64752;48.870;9.082;2022-10-31T08:53:28;10.93;;;5.37;;
76053;SDS011;64752;48.870;9.082;2022-10-31T08:55:54;14.67;;;5.90;;
76053;SDS011;64752;48.870;9.082;2022-10-31T08:58:21;13.57;;;5.28;;
76053;SDS011;64752;48.870;9.082;2022-10-31T09:00:47;15.75;;;5.13;;
76053;SDS011;64752;48.870;9.082;2022-10-31T09:03:15;12.35;;;5.32;;
76053;SDS011;64752;48.870;9.082;2022-10-31T09:05:47;13.73;;;5.93;;
76053;SDS011;64752;48.870;9.082;2022-10-31T09:08:13;12.97;;;6.40;;
76053;SDS011;64752;48.870;9.082;2022-10-31T09:10:39;13.60;;;5.75;;
76053;SDS011;64752;48.870;9.082;2022-10-31T09:13:06;13.73;;;5.88;;
76053;SDS011;64752;48.870;9.082;2022-10-31T09:15:37;11.85;;;5.32;;
76053;SDS011;64752;48.870;9.082;2022-10-31T09:18:04;11.45;;;5.05;;
76053;SDS011;64752;48.870;9.082;2022-10-31T09:20:31;11.45;;;5.35;;
76053;SDS011;64752;48.870;9.082;2022-10-31T09:23:03;13.05;;;5.30;;
76053;SDS011;64752;48.870;9.082;2022-10-31T09:25:30;11.00;;;5.30;;
76053;SDS011;64752;48.870;9.082;2022-10-31T09:27:58;10.30;;;5.00;;
76053;SDS011;64752;48.870;9.082;2022-10-31T09:30:25;13.32;;;5.53;;
76053;SDS011;64752;48.870;9.082;2022-10-31T09:32:56;13.15;;;5.18;;
76053;SDS011;64752;48.870;9.082;2022-10-31T09:35:26;15.90;;;4.97;;
76053;SDS011;64752;48.870;9.082;2022-10-31T09:37:58;11.33;;;4.93;;
76053;SDS011;64752;48.870;9.082;2022-10-31T09:40:27;10.10;;;5.18;;
76053;SDS011;64752;48.870;9.082;2022-10-31T09:45:26;14.27;;;5.80;;
76053;SDS011;64752;48.870;9.082;2022-10-31T09:50:52;8.65;;;4.60;;
76053;SDS011;64752;48.870;9.082;2022-10-31T09:56:16;9.77;;;4.68;;
76053;SDS011;64752;48.870;9.082;2022-10-31T09:58:52;12.93;;;4.78;;
76053;SDS011;64752;48.870;9.082;2022-10-31T10:03:56;11.13;;;5.07;;
76053;SDS011;64752;48.870;9.082;2022-10-31T10:06:29;11.40;;;5.03;;
76053;SDS011;64752;48.870;9.082;2022-10-31T10:08:59;12.68;;;6.15;;
76053;SDS011;64752;48.870;9.082;2022-10-31T10:14:21;14.25;;;5.90;;
76053;SDS011;64752;48.870;9.082;2022-10-31T10:19:48;15.40;;;5.65;;
76053;SDS011;64752;48.870;9.082;2022-10-31T10:22:29;12.93;;;5.18;;
76053;SDS011;64752;48.870;9.082;2022-10-31T10:30:52;9.68;;;5.22;;
76053;SDS011;64752;48.870;9.082;2022-10-31T10:33:31;11.95;;;5.00;;
76053;SDS011;64752;48.870;9.082;2022-10-31T10:36:04;12.45;;;5.18;;
76053;SDS011;64752;48.870;9.082;2022-10-31T10:38:47;13.05;;;5.97;;
76053;SDS011;64752;48.870;9.082;2022-10-31T10:41:17;13.70;;;6.22;;
76053;SDS011;64752;48.870;9.082;2022-10-31T10:43:43;9.68;;;5.20;;
76053;SDS011;64752;48.870;9.082;2022-10-31T10:46:19;14.50;;;6.20;;
76053;SDS011;64752;48.870;9.082;2022-10-31T10:54:56;12.70;;;5.75;;
76053;SDS011;64752;48.870;9.082;2022-10-31T11:00:18;14.35;;;5.60;;
76053;SDS011;64752;48.870;9.082;2022-10-31T11:02:44;11.43;;;6.28;;
76053;SDS011;64752;48.870;9.082;2022-10-31T11:05:13;11.90;;;5.90;;
76053;SDS011;64752;48.870;9.082;2022-10-31T11:07:47;13.30;;;6.18;;
76053;SDS011;64752;48.870;9.082;2022-10-31T11:10:13;16.53;;;6.27;;
76053;SDS011;64752;48.870;9.082;2022-10-31T11:12:40;14.70;;;6.60;;
76053;SDS011;64752;48.870;9.082;2022-10-31T11:15:08;10.88;;;5.68;;
76053;SDS011;64752;48.870;9.082;2022-10-31T11:17:46;12.45;;;5.35;;
76053;SDS011;64752;48.870;9.082;2022-10-31T11:22:49;14.00;;;5.80;;
76053;SDS011;64752;48.870;9.082;2022-10-31T11:25:25;11.25;;;5.53;;
76053;SDS011;64752;48.870;9.082;2022-10-31T11:30:30;11.50;;;5.68;;
76053;SDS011;64752;48.870;9.082;2022-10-31T11:33:11;12.75;;;5.35;;
76053;SDS011;64752;48.870;9.082;2022-10-31T11:35:57;17.70;;;6.63;;
76053;SDS011;64752;48.870;9.082;2022-10-31T11:38:24;20.17;;;6.53;;
76053;SDS011;64752;48.870;9.082;2022-10-31T11:41:18;11.73;;;5.80;;
76053;SDS011;64752;48.870;9.082;2022-10-31T11:44:04;15.05;;;5.32;;
76053;SDS011;64752;48.870;9.082;2022-10-31T11:46:41;13.85;;;5.88;;
76053;SDS011;64752;48.870;9.082;2022-10-31T11:49:20;12.48;;;5.60;;
76053;SDS011;64752;48.870;9.082;2022-10-31T11:51:55;14.55;;;5.35;;
76053;SDS011;64752;48.870;9.082;2022-10-31T11:54:32;18.65;;;5.78;;
76053;SDS011;64752;48.870;9.082;2022-10-31T11:57:25;13.97;;;5.60;;
76053;SDS011;64752;48.870;9.082;2022-10-31T12:00:00;15.95;;;6.13;;
76053;SDS011;64752;48.870;9.082;2022-10-31T12:02:28;15.73;;;5.10;;
76053;SDS011;64752;48.870;9.082;2022-10-31T12:05:00;13.00;;;5.75;;
76053;SDS011;64752;48.870;9.082;2022-10-31T12:07:41;15.55;;;5.05;;
76053;SDS011;64752;48.870;9.082;2022-10-31T12:10:10;14.20;;;5.50;;
76053;SDS011;64752;48.870;9.082;2022-10-31T12:12:49;13.85;;;4.85;;
76053;SDS011;64752;48.870;9.082;2022-10-31T12:15:27;13.90;;;5.50;;
76053;SDS011;64752;48.870;9.082;2022-10-31T12:18:17;14.40;;;5.38;;
76053;SDS011;64752;48.870;9.082;2022-10-31T12:37:00;9.18;;;5.00;;
76053;SDS011;64752;48.870;9.082;2022-10-31T12:43:00;13.82;;;5.63;;
76053;SDS011;64752;48.870;9.082;2022-10-31T12:50:58;14.30;;;6.18;;
76053;SDS011;64752;48.870;9.082;2022-10-31T12:58:45;10.68;;;5.63;;
76053;SDS011;64752;48.870;9.082;2022-10-31T13:01:16;14.27;;;6.32;;
76053;SDS011;64752;48.870;9.082;2022-10-31T13:03:50;11.25;;;5.65;;
76053;SDS011;64752;48.870;9.082;2022-10-31T13:06:36;16.10;;;5.50;;
76053;SDS011;64752;48.870;9.082;2022-10-31T13:09:06;14.20;;;6.55;;
76053;SDS011;64752;48.870;9.082;2022-10-31T13:11:40;13.02;;;6.55;;
76053;SDS011;64752;48.870;9.082;2022-10-31T13:16:46;13.60;;;6.78;;
76053;SDS011;64752;48.870;9.082;2022-10-31T13:19:19;19.17;;;6.72;;
76053;SDS011;64752;48.870;9.082;2022-10-31T13:24:20;18.63;;;6.28;;
76053;SDS011;64752;48.870;9.082;2022-10-31T13:26:51;12.38;;;6.32;;
76053;SDS011;64752;48.870;9.082;2022-10-31T13:29:23;13.43;;;6.00;;
76053;SDS011;64752;48.870;9.082;2022-10-31T13:31:54;16.17;;;5.85;;
76053;SDS011;64752;48.870;9.082;2022-10-31T13:45:16;18.17;;;6.88;;
76053;SDS011;64752;48.870;9.082;2022-10-31T13:47:54;12.45;;;5.47;;
76053;SDS011;64752;48.870;9.082;2022-10-31T13:50:40;13.48;;;6.05;;
76053;SDS011;64752;48.870;9.082;2022-10-31T13:55:44;15.07;;;5.63;;
76053;SDS011;64752;48.870;9.082;2022-10-31T13:58:28;13.55;;;5.20;;
76053;SDS011;64752;48.870;9.082;2022-10-31T14:01:11;16.55;;;4.72;;
76053;SDS011;64752;48.870;9.082;2022-10-31T14:03:41;13.95;;;5.55;;
76053;SDS011;64752;48.870;9.082;2022-10-31T14:06:09;12.57;;;5.68;;
76053;SDS011;64752;48.870;9.082;2022-10-31T14:08:37;12.80;;;5.20;;
76053;SDS011;64752;48.870;9.082;2022-10-31T14:11:06;17.10;;;5.40;;
76053;SDS011;64752;48.870;9.082;2022-10-31T14:13:38;15.07;;;5.70;;
76053;SDS011;64752;48.870;9.082;2022-10-31T14:16:20;15.75;;;5.97;;
76053;SDS011;64752;48.870;9.082;2022-10-31T14:19:13;12.65;;;6.13;;
76053;SDS011;64752;48.870;9.082;2022-10-31T14:21:41;16.80;;;6.35;;
76053;SDS011;64752;48.870;9.082;2022-10-31T14:24:15;13.27;;;5.82;;
76053;SDS011;64752;48.870;9.082;2022-10-31T14:55:55;23.17;;;6.75;;
76053;SDS011;64752;48.870;9.082;2022-10-31T14:58:23;13.07;;;6.65;;
76053;SDS011;64752;48.870;9.082;2022-10-31T15:00:57;15.50;;;6.95;;
76053;SDS011;64752;48.870;9.082;2022-10-31T15:05:50;23.70;;;7.47;;
76053;SDS011;64752;48.870;9.082;2022-10-31T15:08:37;20.73;;;6.93;;
76053;SDS011;64752;48.870;9.082;2022-10-31T15:11:21;12.43;;;6.25;;
76053;SDS011;64752;48.870;9.082;2022-10-31T15:13:55;11.95;;;6.00;;
76053;SDS011;64752;48.870;9.082;2022-10-31T15:16:23;16.52;;;6.85;;
76053;SDS011;64752;48.870;9.082;2022-10-31T15:19:02;20.98;;;7.57;;
76053;SDS011;64752;48.870;9.082;2022-10-31T15:21:30;17.13;;;7.28;;
76053;SDS011;64752;48.870;9.082;2022-10-31T15:24:00;18.23;;;8.13;;
76053;SDS011;64752;48.870;9.082;2022-10-31T15:26:29;21.80;;;7.75;;
76053;SDS011;64752;48.870;9.082;2022-10-31T15:28:58;16.05;;;7.25;;
76053;SDS011;64752;48.870;9.082;2022-10-31T15:31:31;16.67;;;6.95;;
76053;SDS011;64752;48.870;9.082;2022-10-31T15:33:59;19.60;;;7.90;;
76053;SDS011;64752;48.870;9.082;2022-10-31T15:36:29;15.43;;;7.55;;
76053;SDS011;64752;48.870;9.082;2022-10-31T15:38:55;21.03;;;9.57;;
76053;SDS011;64752;48.870;9.082;2022-10-31T15:41:39;21.40;;;10.15;;
76053;SDS011;64752;48.870;9.082;2022-10-31T15:44:16;25.52;;;10.93;;
76053;SDS011;64752;48.870;9.082;2022-10-31T15:46:51;17.30;;;9.15;;
76053;SDS011;64752;48.870;9.082;2022-10-31T15:53:03;21.52;;;9.73;;
76053;SDS011;64752;48.870;9.082;2022-10-31T15:57:38;23.95;;;10.77;;
76053;SDS011;64752;48.870;9.082;2022-10-31T16:00:05;24.17;;;11.95;;
76053;SDS011;64752;48.870;9.082;2022-10-31T16:02:31;22.92;;;11.70;;
76053;SDS011;64752;48.870;9.082;2022-10-31T16:07:23;28.05;;;12.05;;
76053;SDS011;64752;48.870;9.082;2022-10-31T16:09:51;27.52;;;13.50;;
76053;SDS011;64752;48.870;9.082;2022-10-31T16:12:20;20.60;;;12.32;;
76053;SDS011;64752;48.870;9.082;2022-10-31T16:14:47;27.27;;;12.15;;
76053;SDS011;64752;48.870;9.082;2022-10-31T16:17:17;23.13;;;12.48;;
76053;SDS011;64752;48.870;9.082;2022-10-31T16:19:52;24.48;;;13.18;;
76053;SDS011;64752;48.870;9.082;2022-10-31T16:22:32;23.10;;;13.02;;
76053;SDS011;64752;48.870;9.082;2022-10-31T16:25:21;23.38;;;14.63;;
76053;SDS011;64752;48.870;9.082;2022-10-31T16:27:51;23.30;;;14.07;;
76053;SDS011;64752;48.870;9.082;2022-10-31T16:32:56;24.17;;;13.55;;
76053;SDS011;64752;48.870;9.082;2022-10-31T16:35:41;24.25;;;14.45;;
76053;SDS011;64752;48.870;9.082;2022-10-31T16:38:07;23.77;;;13.60;;
76053;SDS011;64752;48.870;9.082;2022-10-31T16:40:34;27.60;;;16.55;;
76053;SDS011;64752;48.870;9.082;2022-10-31T16:43:02;28.88;;;13.43;;
76053;SDS011;64752;48.870;9.082;2022-10-31T16:45:29;27.40;;;15.07;;
76053;SDS011;64752;48.870;9.082;2022-10-31T16:48:03;32.08;;;17.08;;
76053;SDS011;64752;48.870;9.082;2022-10-31T16:50:31;26.27;;;16.98;;
76053;SDS011;64752;48.870;9.082;2022-10-31T16:52:57;25.20;;;16.88;;
76053;SDS011;64752;48.870;9.082;2022-10-31T16:55:23;33.85;;;19.17;;
76053;SDS011;64752;48.870;9.082;2022-10-31T16:57:50;35.92;;;17.88;;
76053;SDS011;64752;48.870;9.082;2022-10-31T17:00:21;32.92;;;17.95;;
76053;SDS011;64752;48.870;9.082;2022-10-31T17:02:49;32.55;;;19.42;;
76053;SDS011;64752;48.870;9.082;2022-10-31T17:05:17;35.13;;;17.92;;
76053;SDS011;64752;48.870;9.082;2022-10-31T17:07:44;28.83;;;18.42;;
76053;SDS011;64752;48.870;9.082;2022-10-31T17:10:10;32.22;;;17.55;;
76053;SDS011;64752;48.870;9.082;2022-10-31T17:12:37;32.80;;;18.08;;
76053;SDS011;64752;48.870;9.082;2022-10-31T17:15:06;34.33;;;18.80;;
76053;SDS011;64752;48.870;9.082;2022-10-31T17:17:40;34.85;;;18.70;;
76053;SDS011;64752;48.870;9.082;2022-10-31T17:20:17;37.58;;;22.25;;
76053;SDS011;64752;48.870;9.082;2022-10-31T17:22:49;36.35;;;20.75;;
76053;SDS011;64752;48.870;9.082;2022-10-31T17:25:15;32.88;;;19.52;;
76053;SDS011;64752;48.870;9.082;2022-10-31T17:27:42;33.55;;;19.95;;
76053;SDS011;64752;48.870;9.082;2022-10-31T17:30:08;44.92;;;19.85;;
76053;SDS011;64752;48.870;9.082;2022-10-31T17:32:36;31.90;;;19.10;;
76053;SDS011;64752;48.870;9.082;2022-10-31T17:35:01;25.23;;;18.83;;
76053;SDS011;64752;48.870;9.082;2022-10-31T17:37:27;35.80;;;22.80;;